Time;durP1;ratioP1;P1;durP2;ratioP2;P2;SDS_P1;SDS_P2;PMS_P1;PMS_P2;Temp;Humidity;BMP_temperature;BMP_pressure;BME280_temperature;BME280_humidity;BME280_pressure;Samples;Min_cycle;Max_cycle;Signal;HPM_P1;HPM_P2
2022/06/18 00:01:40;;;;;;;;;11.00;11.00;;;;;;;;5056618;28;45436;-73
2022/06/18 00:04:07;;;;;;;;;11.00;11.00;;;;;;;;5056677;28;45442;-71
2022/06/18 00:06:34;;;;;;;;;12.00;9.67;;;;;;;;5056283;28;45455;-71
2022/06/18 00:09:00;;;;;;;;;12.33;12.00;;;;;;;;5057378;28;45225;-72
2022/06/18 00:14:09;;;;;;;;;10.00;10.00;;;;;;;;5057297;28;45269;-72
2022/06/18 00:16:36;;;;;;;;;12.00;10.00;;;;;;;;5057427;28;45336;-72
2022/06/18 00:19:01;;;;;;;;;10.00;10.00;;;;;;;;5057508;28;45503;-72
2022/06/18 00:21:26;;;;;;;;;11.00;9.33;;;;;;;;5057062;28;45380;-71
2022/06/18 00:23:51;;;;;;;;;13.67;9.33;;;;;;;;5057075;28;45725;-72
2022/06/18 00:26:17;;;;;;;;;12.00;10.00;;;;;;;;5057356;28;45317;-72
2022/06/18 00:28:42;;;;;;;;;9.00;9.00;;;;;;;;5057441;28;45301;-72
2022/06/18 00:31:07;;;;;;;;;9.33;8.67;;;;;;;;5056926;28;46656;-72
2022/06/18 00:33:36;;;;;;;;;9.33;9.33;;;;;;;;5057036;28;45399;-72
2022/06/18 00:36:03;;;;;;;;;9.33;8.67;;;;;;;;5057114;28;45454;-72
2022/06/18 00:38:30;;;;;;;;;10.67;9.00;;;;;;;;5057319;28;45374;-72
2022/06/18 00:40:56;;;;;;;;;11.00;9.67;;;;;;;;5056667;28;46498;-72
2022/06/18 00:43:25;;;;;;;;;8.67;8.67;;;;;;;;5056476;28;45539;-72
2022/06/18 00:45:52;;;;;;;;;11.67;10.00;;;;;;;;5057083;28;45451;-72
2022/06/18 00:48:27;;;;;;;;;10.67;9.00;;;;;;;;5056990;28;45389;-71
2022/06/18 00:50:58;;;;;;;;;10.00;7.67;;;;;;;;5056739;28;45440;-71
2022/06/18 00:53:28;;;;;;;;;10.33;10.33;;;;;;;;5056649;28;45357;-72
2022/06/18 00:55:53;;;;;;;;;12.67;9.67;;;;;;;;5056981;28;45234;-71
2022/06/18 00:58:20;;;;;;;;;10.33;10.33;;;;;;;;5056691;28;45427;-72
2022/06/18 01:00:47;;;;;;;;;10.67;9.33;;;;;;;;5056820;28;46630;-68
2022/06/18 01:03:31;;;;;;;;;10.67;10.00;;;;;;;;5056717;28;45362;-70
2022/06/18 01:06:00;;;;;;;;;10.00;10.00;;;;;;;;5056941;28;45350;-69
2022/06/18 01:08:27;;;;;;;;;11.67;11.67;;;;;;;;5056864;28;45301;-69
2022/06/18 01:10:57;;;;;;;;;13.00;10.00;;;;;;;;5056587;28;45554;-69
2022/06/18 01:13:25;;;;;;;;;9.00;9.00;;;;;;;;5056068;28;45355;-69
2022/06/18 01:15:52;;;;;;;;;8.33;8.33;;;;;;;;5038564;28;45297;-69
2022/06/18 01:18:18;;;;;;;;;12.00;10.33;;;;;;;;5058539;28;45226;-69
2022/06/18 01:20:48;;;;;;;;;9.67;9.67;;;;;;;;5059717;28;46846;-69
2022/06/18 01:23:18;;;;;;;;;13.00;11.00;;;;;;;;5060012;28;45257;-69
2022/06/18 01:25:43;;;;;;;;;12.33;10.33;;;;;;;;5060089;28;45190;-69
2022/06/18 01:28:09;;;;;;;;;16.33;12.67;;;;;;;;5059973;28;45388;-69
2022/06/18 01:30:36;;;;;;;;;12.00;8.33;;;;;;;;5059701;28;46220;-69
2022/06/18 01:33:01;;;;;;;;;10.33;10.33;;;;;;;;5059813;28;45482;-69
2022/06/18 01:35:27;;;;;;;;;12.67;11.00;;;;;;;;5059808;28;45348;-70
2022/06/18 01:37:52;;;;;;;;;12.67;12.00;;;;;;;;5060150;28;45299;-69
2022/06/18 01:40:28;;;;;;;;;12.33;12.33;;;;;;;;5059709;28;45513;-69
2022/06/18 01:42:57;;;;;;;;;25.00;25.00;;;;;;;;5059712;28;45388;-68
2022/06/18 01:45:25;;;;;;;;;15.67;13.67;;;;;;;;5059437;28;45320;-69
2022/06/18 01:47:53;;;;;;;;;15.00;11.33;;;;;;;;5059790;28;45184;-68
2022/06/18 01:50:21;;;;;;;;;8.67;8.67;;;;;;;;5059371;28;46371;-69
2022/06/18 01:52:49;;;;;;;;;10.33;10.33;;;;;;;;5059542;28;45247;-69
2022/06/18 01:55:16;;;;;;;;;12.67;11.67;;;;;;;;5059436;28;45369;-68
2022/06/18 01:57:45;;;;;;;;;13.33;13.33;;;;;;;;5059622;28;45455;-69
2022/06/18 02:00:13;;;;;;;;;14.67;12.33;;;;;;;;5059057;28;45511;-68
2022/06/18 02:02:39;;;;;;;;;11.67;11.00;;;;;;;;5059308;28;45337;-69
2022/06/18 02:05:05;;;;;;;;;13.33;12.00;;;;;;;;5059392;28;45272;-69
2022/06/18 02:07:30;;;;;;;;;13.33;11.00;;;;;;;;5059379;28;45356;-69
2022/06/18 02:10:05;;;;;;;;;11.67;11.00;;;;;;;;5059225;28;46780;-69
2022/06/18 02:12:36;;;;;;;;;8.33;8.33;;;;;;;;5059117;28;45361;-69
2022/06/18 02:15:24;;;;;;;;;10.00;10.00;;;;;;;;5059132;28;45317;-68
2022/06/18 02:17:50;;;;;;;;;12.33;12.00;;;;;;;;5036817;28;45473;-69
2022/06/18 02:20:25;;;;;;;;;12.00;10.00;;;;;;;;5036695;28;46205;-68
2022/06/18 02:22:53;;;;;;;;;11.33;11.33;;;;;;;;5036677;28;45374;-68
2022/06/18 02:25:20;;;;;;;;;10.67;10.00;;;;;;;;5036084;28;45449;-68
2022/06/18 02:27:45;;;;;;;;;11.33;11.33;;;;;;;;5035660;28;45651;-68
2022/06/18 02:30:21;;;;;;;;;12.00;11.33;;;;;;;;5035940;28;45378;-68
2022/06/18 02:33:05;;;;;;;;;13.00;11.33;;;;;;;;5036499;28;45491;-69
2022/06/18 02:35:34;;;;;;;;;11.33;11.33;;;;;;;;5036518;28;45404;-68
2022/06/18 02:37:59;;;;;;;;;17.33;17.00;;;;;;;;5036791;28;45322;-69
2022/06/18 02:40:27;;;;;;;;;17.33;16.33;;;;;;;;5036051;28;47068;-69
2022/06/18 02:42:57;;;;;;;;;16.67;15.33;;;;;;;;5036099;28;45506;-69
2022/06/18 02:45:24;;;;;;;;;16.67;13.00;;;;;;;;5035747;28;45211;-69
2022/06/18 02:47:50;;;;;;;;;14.33;14.00;;;;;;;;5049930;28;45435;-70
2022/06/18 02:50:16;;;;;;;;;12.67;12.33;;;;;;;;5043932;28;45686;-71
2022/06/18 02:52:49;;;;;;;;;14.33;13.33;;;;;;;;5040760;28;45298;-70
2022/06/18 02:55:17;;;;;;;;;18.33;15.67;;;;;;;;5051746;28;45388;-69
2022/06/18 02:57:42;;;;;;;;;15.00;15.00;;;;;;;;5056714;28;45797;-70
2022/06/18 03:00:10;;;;;;;;;16.33;16.33;;;;;;;;5056181;28;46193;-69
2022/06/18 03:02:35;;;;;;;;;25.00;20.33;;;;;;;;5057546;28;45399;-70
2022/06/18 03:05:01;;;;;;;;;22.67;21.00;;;;;;;;5058594;28;45360;-69
2022/06/18 03:07:26;;;;;;;;;23.33;20.33;;;;;;;;5058542;28;45912;-69
2022/06/18 03:12:35;;;;;;;;;34.00;28.33;;;;;;;;5056555;28;45310;-70
2022/06/18 03:15:00;;;;;;;;;28.00;26.33;;;;;;;;5056476;28;45771;-70
2022/06/18 03:17:25;;;;;;;;;34.33;29.00;;;;;;;;5056923;28;45368;-71
2022/06/18 03:19:53;;;;;;;;;33.33;26.00;;;;;;;;5056288;28;46540;-71
2022/06/18 03:22:20;;;;;;;;;31.00;27.00;;;;;;;;5056379;28;45415;-70
2022/06/18 03:24:45;;;;;;;;;30.00;29.67;;;;;;;;5056449;28;45515;-70
2022/06/18 03:27:12;;;;;;;;;31.67;28.33;;;;;;;;5056883;28;45328;-71
2022/06/18 03:29:37;;;;;;;;;37.00;30.33;;;;;;;;5056009;28;46135;-70
2022/06/18 03:32:03;;;;;;;;;32.00;27.33;;;;;;;;5056040;28;45640;-71
2022/06/18 03:34:28;;;;;;;;;31.67;29.33;;;;;;;;5056575;28;45456;-71
2022/06/18 03:36:54;;;;;;;;;35.00;30.67;;;;;;;;5056253;28;45376;-70
2022/06/18 03:39:19;;;;;;;;;37.33;30.00;;;;;;;;5056342;28;46464;-70
2022/06/18 03:41:44;;;;;;;;;34.33;30.67;;;;;;;;5054845;28;45409;-71
2022/06/18 03:44:09;;;;;;;;;30.00;28.67;;;;;;;;5056188;28;45408;-70
2022/06/18 03:46:38;;;;;;;;;37.67;30.00;;;;;;;;5056162;28;45387;-71
2022/06/18 03:49:04;;;;;;;;;30.67;28.33;;;;;;;;5057587;28;45676;-70
2022/06/18 03:51:30;;;;;;;;;32.00;29.00;;;;;;;;5056090;28;45688;-70
2022/06/18 03:53:56;;;;;;;;;33.33;29.33;;;;;;;;5055983;28;45390;-70
2022/06/18 03:56:23;;;;;;;;;36.67;32.00;;;;;;;;5056315;28;45459;-70
2022/06/18 03:58:49;;;;;;;;;36.00;31.00;;;;;;;;5055512;28;45438;-70
2022/06/18 04:01:15;;;;;;;;;26.33;26.33;;;;;;;;5036163;28;45721;-71
2022/06/18 04:03:40;;;;;;;;;38.67;32.33;;;;;;;;5056018;28;45425;-70
2022/06/18 04:06:07;;;;;;;;;25.00;24.00;;;;;;;;5055963;28;45298;-70
2022/06/18 04:08:32;;;;;;;;;27.67;27.00;;;;;;;;5056106;28;45446;-70
2022/06/18 04:10:58;;;;;;;;;31.67;29.33;;;;;;;;5055513;28;45273;-70
2022/06/18 04:13:23;;;;;;;;;33.00;27.67;;;;;;;;5055617;28;45487;-70
2022/06/18 04:15:49;;;;;;;;;26.33;25.00;;;;;;;;5056034;28;45597;-70
2022/06/18 04:18:17;;;;;;;;;24.33;24.00;;;;;;;;5055642;28;46136;-70
2022/06/18 04:20:42;;;;;;;;;27.00;24.33;;;;;;;;5055426;28;45452;-70
2022/06/18 04:23:08;;;;;;;;;23.33;22.33;;;;;;;;5055762;28;45611;-70
2022/06/18 04:25:33;;;;;;;;;25.33;22.67;;;;;;;;5055762;28;45330;-70
2022/06/18 04:27:59;;;;;;;;;27.67;21.33;;;;;;;;5055270;28;45392;-70
2022/06/18 04:30:26;;;;;;;;;28.67;26.67;;;;;;;;5055266;28;45454;-70
2022/06/18 04:32:52;;;;;;;;;26.33;25.33;;;;;;;;5055810;28;45412;-70
2022/06/18 04:35:17;;;;;;;;;26.67;20.33;;;;;;;;5055418;28;45295;-70
2022/06/18 04:37:44;;;;;;;;;23.67;22.67;;;;;;;;5055196;28;46929;-70
2022/06/18 04:40:13;;;;;;;;;24.33;23.67;;;;;;;;5055360;28;45511;-70
2022/06/18 04:42:38;;;;;;;;;19.00;18.67;;;;;;;;5055290;28;45475;-70
2022/06/18 04:45:03;;;;;;;;;26.00;22.00;;;;;;;;5055251;28;46236;-70
2022/06/18 04:47:28;;;;;;;;;24.33;20.00;;;;;;;;5055253;28;45386;-70
2022/06/18 04:49:54;;;;;;;;;23.50;22.50;;;;;;;;5054777;28;45579;-70
2022/06/18 04:52:19;;;;;;;;;26.67;23.67;;;;;;;;5055528;28;45407;-70
2022/06/18 04:54:44;;;;;;;;;21.67;20.33;;;;;;;;5058952;28;45465;-70
2022/06/18 04:57:10;;;;;;;;;20.33;19.00;;;;;;;;5058441;28;45430;-70
2022/06/18 04:59:35;;;;;;;;;24.33;21.00;;;;;;;;5058448;28;45447;-71
2022/06/18 05:02:02;;;;;;;;;21.33;19.00;;;;;;;;5058689;28;45381;-70
2022/06/18 05:04:27;;;;;;;;;22.67;21.00;;;;;;;;5059137;28;45444;-70
2022/06/18 05:06:52;;;;;;;;;21.67;20.67;;;;;;;;5058389;28;45313;-70
2022/06/18 05:09:18;;;;;;;;;20.00;19.00;;;;;;;;5058668;28;45210;-70
2022/06/18 05:11:44;;;;;;;;;22.00;19.67;;;;;;;;5058579;28;45403;-70
2022/06/18 05:14:09;;;;;;;;;20.33;20.33;;;;;;;;5058814;28;45650;-70
2022/06/18 05:16:34;;;;;;;;;25.00;23.00;;;;;;;;5058021;28;46121;-69
2022/06/18 05:18:59;;;;;;;;;26.33;17.33;;;;;;;;5058342;28;45437;-70
2022/06/18 05:21:25;;;;;;;;;25.33;21.00;;;;;;;;5058901;28;45379;-70
2022/06/18 05:23:50;;;;;;;;;20.67;19.67;;;;;;;;5058583;28;45246;-70
2022/06/18 05:26:15;;;;;;;;;18.67;18.67;;;;;;;;5058194;28;46550;-70
2022/06/18 05:28:41;;;;;;;;;18.67;18.67;;;;;;;;5058301;28;45353;-70
2022/06/18 05:31:06;;;;;;;;;19.67;16.67;;;;;;;;5057840;28;45233;-71
2022/06/18 05:33:31;;;;;;;;;18.00;15.67;;;;;;;;5058567;28;45214;-70
2022/06/18 05:35:57;;;;;;;;;19.67;18.67;;;;;;;;5057798;28;45585;-70
2022/06/18 05:38:23;;;;;;;;;18.67;17.00;;;;;;;;5058045;28;45443;-70
2022/06/18 05:40:48;;;;;;;;;16.33;16.33;;;;;;;;5058360;28;45759;-71
2022/06/18 05:43:13;;;;;;;;;20.67;19.00;;;;;;;;5057515;28;45320;-70
2022/06/18 05:45:40;;;;;;;;;16.00;16.00;;;;;;;;5057182;28;45415;-70
2022/06/18 05:48:05;;;;;;;;;19.33;15.67;;;;;;;;5057670;28;45494;-70
2022/06/18 05:50:30;;;;;;;;;17.33;16.67;;;;;;;;5058001;28;45479;-70
2022/06/18 05:52:55;;;;;;;;;17.67;16.00;;;;;;;;5058306;28;45501;-71
2022/06/18 05:55:22;;;;;;;;;17.33;16.00;;;;;;;;5057853;28;45456;-71
2022/06/18 05:57:50;;;;;;;;;20.33;18.33;;;;;;;;5057560;28;45349;-70
2022/06/18 06:00:17;;;;;;;;;17.67;17.67;;;;;;;;5057162;28;45458;-70
2022/06/18 06:02:42;;;;;;;;;17.33;16.00;;;;;;;;5057700;28;45216;-69
2022/06/18 06:05:07;;;;;;;;;18.00;16.67;;;;;;;;5056520;28;46431;-70
2022/06/18 06:07:32;;;;;;;;;16.33;16.33;;;;;;;;5057265;28;45769;-70
2022/06/18 06:12:42;;;;;;;;;18.33;17.00;;;;;;;;5057738;28;45323;-69
2022/06/18 06:15:07;;;;;;;;;19.00;16.00;;;;;;;;5057323;28;47100;-69
2022/06/18 06:17:33;;;;;;;;;25.67;23.67;;;;;;;;5057235;28;45459;-70
2022/06/18 06:20:00;;;;;;;;;18.00;17.00;;;;;;;;5057685;28;45235;-69
2022/06/18 06:22:26;;;;;;;;;14.33;14.33;;;;;;;;5057592;28;45507;-70
2022/06/18 06:24:51;;;;;;;;;17.67;16.33;;;;;;;;5057286;28;45372;-70
2022/06/18 06:27:17;;;;;;;;;43.50;35.50;;;;;;;;5056908;28;45510;-70
2022/06/18 06:29:42;;;;;;;;;21.00;21.00;;;;;;;;5057359;28;45423;-70
2022/06/18 06:32:07;;;;;;;;;18.67;18.00;;;;;;;;5057514;28;45472;-70
2022/06/18 06:34:33;;;;;;;;;21.33;18.00;;;;;;;;5057051;28;45465;-70
2022/06/18 06:36:58;;;;;;;;;16.67;16.67;;;;;;;;5057139;28;45408;-70
2022/06/18 06:39:23;;;;;;;;;19.00;17.67;;;;;;;;5057355;28;45396;-69
2022/06/18 06:41:49;;;;;;;;;18.33;15.00;;;;;;;;5057196;28;45404;-69
2022/06/18 06:44:14;;;;;;;;;16.33;14.00;;;;;;;;5058610;28;46650;-70
2022/06/18 06:46:39;;;;;;;;;20.33;17.33;;;;;;;;5058040;28;45262;-70
2022/06/18 06:49:05;;;;;;;;;21.00;19.67;;;;;;;;5058929;28;45329;-70
2022/06/18 06:51:31;;;;;;;;;20.33;16.00;;;;;;;;5058725;28;45467;-70
2022/06/18 06:53:57;;;;;;;;;17.67;14.00;;;;;;;;5058000;28;45519;-69
2022/06/18 06:59:07;;;;;;;;;13.00;12.33;;;;;;;;5058059;28;45230;-70
2022/06/18 07:01:33;;;;;;;;;17.00;13.00;;;;;;;;5068562;28;45687;-71
2022/06/18 07:03:59;;;;;;;;;18.00;13.00;;;;;;;;5078560;28;46510;-70
2022/06/18 07:06:24;;;;;;;;;14.33;12.33;;;;;;;;5078369;28;45344;-70
2022/06/18 07:08:50;;;;;;;;;11.00;11.00;;;;;;;;5078950;28;45413;-70
2022/06/18 07:11:15;;;;;;;;;17.00;14.33;;;;;;;;5078555;28;45335;-70
2022/06/18 07:13:40;;;;;;;;;11.33;11.33;;;;;;;;5078212;28;47217;-70
2022/06/18 07:16:06;;;;;;;;;14.67;13.00;;;;;;;;5067062;28;45415;-71
2022/06/18 07:18:32;;;;;;;;;11.33;11.00;;;;;;;;5057306;28;45427;-70
2022/06/18 07:20:59;;;;;;;;;10.33;10.33;;;;;;;;5058513;28;45276;-70
2022/06/18 07:23:24;;;;;;;;;13.67;11.00;;;;;;;;5057835;28;47608;-70
2022/06/18 07:25:49;;;;;;;;;11.67;11.00;;;;;;;;5057857;28;45519;-69
2022/06/18 07:28:15;;;;;;;;;12.33;10.00;;;;;;;;5058286;28;45417;-70
2022/06/18 07:30:41;;;;;;;;;12.00;12.00;;;;;;;;5063008;28;45432;-70
2022/06/18 07:33:06;;;;;;;;;8.67;7.67;;;;;;;;5057644;28;46367;-70
2022/06/18 07:35:34;;;;;;;;;15.67;13.00;;;;;;;;5057730;28;45372;-70
2022/06/18 07:37:59;;;;;;;;;16.33;12.00;;;;;;;;5057582;28;45759;-70
2022/06/18 07:40:26;;;;;;;;;10.67;10.00;;;;;;;;5057894;28;45401;-70
2022/06/18 07:42:53;;;;;;;;;12.33;11.00;;;;;;;;5057722;28;46479;-71
2022/06/18 07:45:20;;;;;;;;;10.67;9.33;;;;;;;;5057035;28;45274;-71
2022/06/18 07:47:46;;;;;;;;;15.67;11.00;;;;;;;;5057747;28;45340;-70
2022/06/18 07:50:12;;;;;;;;;10.33;9.00;;;;;;;;5057785;28;45277;-70
2022/06/18 07:52:37;;;;;;;;;10.00;9.00;;;;;;;;5057201;28;45792;-70
2022/06/18 07:55:03;;;;;;;;;10.33;8.00;;;;;;;;5057575;28;45337;-70
2022/06/18 07:57:28;;;;;;;;;11.00;9.33;;;;;;;;5057785;28;45495;-70
2022/06/18 07:59:53;;;;;;;;;12.33;10.00;;;;;;;;5057619;28;45323;-70
2022/06/18 08:02:19;;;;;;;;;15.00;10.00;;;;;;;;5060212;28;45541;-70
2022/06/18 08:04:44;;;;;;;;;12.00;9.00;;;;;;;;5058644;28;45456;-70
2022/06/18 08:07:09;;;;;;;;;8.00;6.33;;;;;;;;5056745;28;45372;-70
2022/06/18 08:09:35;;;;;;;;;12.00;10.00;;;;;;;;5068444;28;45579;-71
2022/06/18 08:12:01;;;;;;;;;8.00;8.00;;;;;;;;5077681;28;45651;-70
2022/06/18 08:14:26;;;;;;;;;9.67;9.00;;;;;;;;5061490;28;45269;-70
2022/06/18 08:16:51;;;;;;;;;18.00;17.67;;;;;;;;5057344;28;45348;-70
2022/06/18 08:19:17;;;;;;;;;10.33;10.00;;;;;;;;5057556;28;45317;-70
2022/06/18 08:21:43;;;;;;;;;9.67;9.00;;;;;;;;5056801;28;46102;-71
2022/06/18 08:24:11;;;;;;;;;11.00;7.33;;;;;;;;5057329;28;45387;-71
2022/06/18 08:26:38;;;;;;;;;15.67;14.33;;;;;;;;5057129;28;45298;-71
2022/06/18 08:29:04;;;;;;;;;10.33;7.67;;;;;;;;5063363;28;45424;-71
2022/06/18 08:31:29;;;;;;;;;9.33;9.00;;;;;;;;5063741;28;45293;-71
2022/06/18 08:33:55;;;;;;;;;9.67;7.67;;;;;;;;5063319;28;45401;-71
2022/06/18 08:36:20;;;;;;;;;8.33;8.33;;;;;;;;5063759;28;45698;-71
2022/06/18 08:38:47;;;;;;;;;10.33;5.67;;;;;;;;5050039;28;45258;-70
2022/06/18 08:41:15;;;;;;;;;6.00;6.00;;;;;;;;5063733;28;46379;-71
2022/06/18 08:43:58;;;;;;;;;8.00;6.67;;;;;;;;5063712;28;45451;-71
2022/06/18 08:46:42;;;;;;;;;8.00;6.00;;;;;;;;5065473;28;45475;-70
2022/06/18 08:49:26;;;;;;;;;8.33;8.00;;;;;;;;5071418;28;45519;-70
2022/06/18 08:51:51;;;;;;;;;8.00;7.67;;;;;;;;5063122;28;47350;-70
2022/06/18 08:54:35;;;;;;;;;6.67;6.67;;;;;;;;5063530;28;45509;-71
2022/06/18 08:57:03;;;;;;;;;14.00;7.00;;;;;;;;5075026;28;45335;-71
2022/06/18 08:59:28;;;;;;;;;7.67;7.67;;;;;;;;5083962;28;45352;-72
2022/06/18 09:02:01;;;;;;;;;8.33;8.33;;;;;;;;5083230;28;46225;-70
2022/06/18 09:04:45;;;;;;;;;9.00;8.00;;;;;;;;5067973;28;45296;-69
2022/06/18 09:07:39;;;;;;;;;8.67;7.33;;;;;;;;5065939;28;45454;-69
2022/06/18 09:10:25;;;;;;;;;8.67;8.67;;;;;;;;5062819;28;45433;-69
2022/06/18 09:12:55;;;;;;;;;9.67;7.00;;;;;;;;5063598;28;46236;-69
2022/06/18 09:15:36;;;;;;;;;10.67;8.67;;;;;;;;5062352;28;45478;-69
2022/06/18 09:18:05;;;;;;;;;9.00;7.33;;;;;;;;5062951;28;45320;-69
2022/06/18 09:20:43;;;;;;;;;12.00;10.00;;;;;;;;5063627;28;45328;-69
2022/06/18 09:23:27;;;;;;;;;7.33;7.33;;;;;;;;5043181;28;46605;-70
2022/06/18 09:25:53;;;;;;;;;10.00;8.33;;;;;;;;5043073;28;45234;-69
2022/06/18 09:28:24;;;;;;;;;9.00;9.00;;;;;;;;5043063;28;45841;-69
2022/06/18 09:31:05;;;;;;;;;9.00;8.67;;;;;;;;5043248;28;45251;-69
2022/06/18 09:33:30;;;;;;;;;9.67;9.67;;;;;;;;5048445;28;45571;-69
2022/06/18 09:35:56;;;;;;;;;8.00;6.33;;;;;;;;5058416;28;45522;-69
2022/06/18 09:38:28;;;;;;;;;8.00;8.00;;;;;;;;5062861;28;45503;-69
2022/06/18 09:40:53;;;;;;;;;7.67;7.67;;;;;;;;5060060;28;45342;-69
2022/06/18 09:43:42;;;;;;;;;10.00;8.00;;;;;;;;5059277;28;46394;-68
2022/06/18 09:46:23;;;;;;;;;8.33;7.00;;;;;;;;5059751;28;45315;-70
2022/06/18 09:48:48;;;;;;;;;11.67;10.33;;;;;;;;5059501;28;45440;-69
2022/06/18 09:51:26;;;;;;;;;9.75;9.50;;;;;;;;5059827;28;45389;-69
2022/06/18 09:53:52;;;;;;;;;9.50;8.00;;;;;;;;5059382;28;47232;-69
2022/06/18 09:56:24;;;;;;;;;9.75;7.25;;;;;;;;5059380;28;45873;-69
2022/06/18 09:58:57;;;;;;;;;8.25;7.00;;;;;;;;5059367;28;45399;-70
2022/06/18 10:01:37;;;;;;;;;8.25;7.00;;;;;;;;5059636;28;45179;-70
2022/06/18 10:06:58;;;;;;;;;12.50;7.75;;;;;;;;5058985;28;45372;-70
2022/06/18 10:09:27;;;;;;;;;8.75;8.75;;;;;;;;5059405;28;45302;-68
2022/06/18 10:11:52;;;;;;;;;97.67;92.33;;;;;;;;5059023;28;45546;-68
2022/06/18 10:14:19;;;;;;;;;6.00;4.75;;;;;;;;5067068;28;46954;-69
2022/06/18 10:16:57;;;;;;;;;11.00;11.00;;;;;;;;5057311;28;45449;-69
2022/06/18 10:19:42;;;;;;;;;18.75;17.00;;;;;;;;5058423;28;45420;-69
2022/06/18 10:22:07;;;;;;;;;9.00;9.00;;;;;;;;5058966;28;45289;-69
2022/06/18 10:24:40;;;;;;;;;11.00;8.25;;;;;;;;5058712;28;47573;-68
2022/06/18 10:27:12;;;;;;;;;11.00;10.00;;;;;;;;5057378;28;45461;-69
2022/06/18 10:29:46;;;;;;;;;10.00;9.50;;;;;;;;5058584;28;45369;-68
2022/06/18 10:32:21;;;;;;;;;12.00;9.50;;;;;;;;5058733;28;45444;-69
2022/06/18 10:34:46;;;;;;;;;9.75;8.00;;;;;;;;5058457;28;45290;-68
2022/06/18 10:37:14;;;;;;;;;8.25;8.00;;;;;;;;5064379;28;45682;-70
2022/06/18 10:39:52;;;;;;;;;8.00;7.50;;;;;;;;5058313;28;45449;-69
2022/06/18 10:42:32;;;;;;;;;10.50;8.25;;;;;;;;5058137;28;45544;-69
2022/06/18 10:45:00;;;;;;;;;8.75;8.75;;;;;;;;5061183;28;45558;-69
2022/06/18 10:47:55;;;;;;;;;8.75;8.75;;;;;;;;5061194;28;45345;-70
2022/06/18 10:50:21;;;;;;;;;6.50;5.25;;;;;;;;5003013;28;45468;-70
2022/06/18 10:52:57;;;;;;;;;11.00;10.25;;;;;;;;5001217;28;45357;-70
2022/06/18 10:55:23;;;;;;;;;9.00;8.00;;;;;;;;5008209;28;46509;-70
2022/06/18 10:57:48;;;;;;;;;8.50;8.50;;;;;;;;4995575;28;45443;-70
2022/06/18 11:00:24;;;;;;;;;11.00;9.25;;;;;;;;4979184;28;45343;-70
2022/06/18 11:02:51;;;;;;;;;11.25;9.75;;;;;;;;4995825;28;45575;-70
2022/06/18 11:05:39;;;;;;;;;9.50;9.50;;;;;;;;4995157;28;46560;-70
2022/06/18 11:08:17;;;;;;;;;8.75;8.75;;;;;;;;4975717;28;45330;-70
2022/06/18 11:10:44;;;;;;;;;10.50;9.50;;;;;;;;4975565;28;45469;-70
2022/06/18 11:13:26;;;;;;;;;10.00;8.25;;;;;;;;4975627;28;45445;-70
2022/06/18 11:16:02;;;;;;;;;12.75;10.25;;;;;;;;4969605;28;46505;-70
2022/06/18 11:18:28;;;;;;;;;9.75;9.75;;;;;;;;4957684;28;45753;-70
2022/06/18 11:20:56;;;;;;;;;14.25;12.75;;;;;;;;4966371;28;45577;-69
2022/06/18 11:23:22;;;;;;;;;9.25;9.25;;;;;;;;4975835;28;45363;-70
2022/06/18 11:25:49;;;;;;;;;14.50;9.75;;;;;;;;4979423;28;45772;-70
2022/06/18 11:28:18;;;;;;;;;12.50;10.50;;;;;;;;5007928;28;45457;-70
2022/06/18 11:30:45;;;;;;;;;11.25;10.50;;;;;;;;5011968;28;45569;-72
2022/06/18 11:33:20;;;;;;;;;10.25;10.00;;;;;;;;5015014;28;45886;-69
2022/06/18 11:35:50;;;;;;;;;13.25;11.00;;;;;;;;4995538;28;46701;-70
2022/06/18 11:38:32;;;;;;;;;15.00;12.00;;;;;;;;5005661;28;45525;-71
2022/06/18 11:41:00;;;;;;;;;11.00;11.00;;;;;;;;4997948;28;45361;-73
2022/06/18 11:43:34;;;;;;;;;10.50;10.50;;;;;;;;5013351;28;45535;-77
2022/06/18 11:46:03;;;;;;;;;12.75;12.00;;;;;;;;5049539;28;45706;-69
2022/06/18 11:48:47;;;;;;;;;13.00;10.00;;;;;;;;5071735;28;45535;-69
2022/06/18 11:51:23;;;;;;;;;12.75;12.75;;;;;;;;5058810;28;46727;-69
2022/06/18 11:53:48;;;;;;;;;14.00;12.25;;;;;;;;5049710;28;45231;-71
2022/06/18 11:56:27;;;;;;;;;12.25;11.25;;;;;;;;5076942;28;46250;-70
2022/06/18 11:59:02;;;;;;;;;14.25;13.25;;;;;;;;5077480;28;45480;-74
2022/06/18 12:01:30;;;;;;;;;13.25;11.25;;;;;;;;5077660;28;45205;-71
2022/06/18 12:04:09;;;;;;;;;13.75;11.75;;;;;;;;5076882;28;45373;-71
2022/06/18 12:06:39;;;;;;;;;15.50;15.50;;;;;;;;5076583;28;46416;-70
2022/06/18 12:09:05;;;;;;;;;13.25;12.50;;;;;;;;5055318;28;45393;-71
2022/06/18 12:11:30;;;;;;;;;15.00;14.25;;;;;;;;5063546;28;45289;-71
2022/06/18 12:14:15;;;;;;;;;17.50;17.00;;;;;;;;5066083;28;45559;-72
2022/06/18 12:16:44;;;;;;;;;16.00;14.75;;;;;;;;5064989;28;46601;-72
2022/06/18 12:19:29;;;;;;;;;16.75;16.00;;;;;;;;5068776;28;45748;-73
2022/06/18 12:21:57;;;;;;;;;17.50;17.50;;;;;;;;5038238;28;45364;-72
2022/06/18 12:24:28;;;;;;;;;12.25;12.25;;;;;;;;5066477;28;45325;-71
2022/06/18 12:27:13;;;;;;;;;17.25;15.75;;;;;;;;5056368;28;46658;-70
2022/06/18 12:29:44;;;;;;;;;16.25;16.00;;;;;;;;5057056;28;45488;-71
2022/06/18 12:32:25;;;;;;;;;17.00;15.00;;;;;;;;5056955;28;46682;-71
2022/06/18 12:34:50;;;;;;;;;18.00;12.75;;;;;;;;5056910;28;45420;-70
2022/06/18 12:37:15;;;;;;;;;12.25;12.25;;;;;;;;5059886;28;45721;-71
2022/06/18 12:39:51;;;;;;;;;14.00;14.00;;;;;;;;5057049;28;45542;-70
2022/06/18 12:42:17;;;;;;;;;15.00;13.75;;;;;;;;5057127;28;45306;-70
2022/06/18 12:44:54;;;;;;;;;14.75;14.25;;;;;;;;5057469;28;45216;-71
2022/06/18 12:47:22;;;;;;;;;13.00;12.25;;;;;;;;5056742;28;45729;-71
2022/06/18 12:50:03;;;;;;;;;14.75;14.75;;;;;;;;5056547;28;45424;-71
2022/06/18 12:52:30;;;;;;;;;18.00;13.75;;;;;;;;5057027;28;45817;-71
2022/06/18 12:55:15;;;;;;;;;17.25;16.00;;;;;;;;5057151;28;45423;-68
2022/06/18 12:57:41;;;;;;;;;11.25;11.00;;;;;;;;5056334;28;46164;-69
2022/06/18 13:00:24;;;;;;;;;13.25;13.25;;;;;;;;5056206;28;45392;-71
2022/06/18 13:03:07;;;;;;;;;11.75;10.75;;;;;;;;5056700;28;45539;-72
2022/06/18 13:05:35;;;;;;;;;14.75;13.75;;;;;;;;5056982;28;45352;-70
2022/06/18 13:08:06;;;;;;;;;13.50;12.00;;;;;;;;5056706;28;45644;-70
2022/06/18 13:10:52;;;;;;;;;14.25;14.25;;;;;;;;5056591;28;45854;-73
2022/06/18 13:13:36;;;;;;;;;13.25;13.00;;;;;;;;5049034;28;45533;-72
2022/06/18 13:16:09;;;;;;;;;14.00;13.00;;;;;;;;5060315;28;45431;-72
2022/06/18 13:18:49;;;;;;;;;12.00;12.00;;;;;;;;5060065;28;46680;-73
2022/06/18 13:21:14;;;;;;;;;15.00;15.00;;;;;;;;5059939;28;45357;-74
2022/06/18 13:29:51;;;;;;;;;20.00;20.00;;;;;;;;5059836;28;45870;-70
2022/06/18 13:32:30;;;;;;;;;11.25;9.50;;;;;;;;5017693;28;45420;-72
2022/06/18 13:35:14;;;;;;;;;13.75;12.75;;;;;;;;5017628;28;45500;-71
2022/06/18 13:37:39;;;;;;;;;11.50;10.00;;;;;;;;5017706;28;45596;-71
2022/06/18 13:40:28;;;;;;;;;13.50;10.25;;;;;;;;5017574;28;45422;-73
2022/06/18 13:43:02;;;;;;;;;11.00;10.00;;;;;;;;4958743;28;46045;-70
2022/06/18 13:45:33;;;;;;;;;10.75;10.50;;;;;;;;4958309;28;45490;-71
2022/06/18 13:47:58;;;;;;;;;13.00;10.00;;;;;;;;4958241;28;45270;-72
2022/06/18 13:50:30;;;;;;;;;15.50;12.75;;;;;;;;4957700;28;47340;-72
2022/06/18 13:52:55;;;;;;;;;12.00;9.00;;;;;;;;4958227;28;45338;-71
2022/06/18 13:55:34;;;;;;;;;11.67;11.67;;;;;;;;4958323;28;45316;-71
2022/06/18 13:58:01;;;;;;;;;12.67;11.67;;;;;;;;4958133;28;45470;-73
2022/06/18 14:00:28;;;;;;;;;13.67;10.33;;;;;;;;4958052;28;46321;-71
2022/06/18 14:03:13;;;;;;;;;10.00;10.00;;;;;;;;4958019;28;45401;-73
2022/06/18 14:05:39;;;;;;;;;13.33;13.00;;;;;;;;4963723;28;45546;-73
2022/06/18 14:08:05;;;;;;;;;10.00;9.67;;;;;;;;4997553;28;45404;-72
2022/06/18 14:10:31;;;;;;;;;11.50;10.25;;;;;;;;4997192;28;46599;-73
2022/06/18 14:13:21;;;;;;;;;9.75;9.75;;;;;;;;4996801;28;45479;-72
2022/06/18 14:15:58;;;;;;;;;10.50;10.50;;;;;;;;4997433;28;45407;-72
2022/06/18 14:18:23;;;;;;;;;10.50;10.50;;;;;;;;4997433;28;45267;-72
2022/06/18 14:20:54;;;;;;;;;12.00;9.00;;;;;;;;5051193;28;45546;-72
2022/06/18 14:23:25;;;;;;;;;10.67;9.33;;;;;;;;5059106;28;45486;-72
2022/06/18 14:26:18;;;;;;;;;18.25;15.50;;;;;;;;5058342;28;45373;-71
2022/06/18 14:28:45;;;;;;;;;12.67;12.33;;;;;;;;5057415;28;45356;-74
2022/06/18 14:31:10;;;;;;;;;11.00;9.67;;;;;;;;5058616;28;47103;-73
2022/06/18 14:33:40;;;;;;;;;15.33;12.67;;;;;;;;5058512;28;45466;-73
2022/06/18 14:36:05;;;;;;;;;14.25;13.75;;;;;;;;5059123;28;45375;-72
2022/06/18 14:38:32;;;;;;;;;17.00;14.25;;;;;;;;5059047;28;45507;-76
2022/06/18 14:43:44;;;;;;;;;14.50;12.75;;;;;;;;5058454;28;45414;-72
2022/06/18 14:46:10;;;;;;;;;15.00;10.67;;;;;;;;5059019;28;45435;-72
2022/06/18 14:48:38;;;;;;;;;11.67;11.67;;;;;;;;5058800;28;45308;-75
2022/06/18 14:51:09;;;;;;;;;22.75;19.75;;;;;;;;5040349;28;45948;-72
2022/06/18 14:53:34;;;;;;;;;13.00;11.00;;;;;;;;5057559;28;45479;-73
2022/06/18 14:56:20;;;;;;;;;13.33;12.33;;;;;;;;5058248;28;45559;-72
2022/06/18 14:58:55;;;;;;;;;9.00;9.00;;;;;;;;5058466;28;45870;-72